sensor_id;sensor_type;location;lat;lon;timestamp;pressure;altitude;pressure_sealevel;temperature;humidity
59435;BME280;45241;49.768;8.636;2024-02-23T00:01:23;97957.47;;;9.64;100.00
59435;BME280;45241;49.768;8.636;2024-02-23T00:03:49;97967.72;;;9.56;100.00
59435;BME280;45241;49.768;8.636;2024-02-23T00:06:14;97973.81;;;9.51;100.00
59435;BME280;45241;49.768;8.636;2024-02-23T00:08:39;97996.50;;;9.37;100.00
59435;BME280;45241;49.768;8.636;2024-02-23T00:11:06;97975.94;;;9.37;100.00
59435;BME280;45241;49.768;8.636;2024-02-23T00:13:31;97982.53;;;9.18;100.00
59435;BME280;45241;49.768;8.636;2024-02-23T00:15:57;97988.66;;;9.30;100.00
59435;BME280;45241;49.768;8.636;2024-02-23T00:18:22;98012.72;;;9.30;100.00
59435;BME280;45241;49.768;8.636;2024-02-23T00:20:47;98049.41;;;9.35;100.00
59435;BME280;45241;49.768;8.636;2024-02-23T00:23:13;98024.13;;;9.14;100.00
59435;BME280;45241;49.768;8.636;2024-02-23T00:25:38;98034.81;;;9.14;100.00
59435;BME280;45241;49.768;8.636;2024-02-23T00:28:04;98035.75;;;9.08;100.00
59435;BME280;45241;49.768;8.636;2024-02-23T00:30:29;98042.84;;;8.91;100.00
59435;BME280;45241;49.768;8.636;2024-02-23T00:32:54;98064.84;;;8.93;100.00
59435;BME280;45241;49.768;8.636;2024-02-23T00:35:20;98052.03;;;9.06;100.00
59435;BME280;45241;49.768;8.636;2024-02-23T00:37:45;98055.63;;;8.89;100.00
59435;BME280;45241;49.768;8.636;2024-02-23T00:40:11;98030.53;;;9.01;100.00
59435;BME280;45241;49.768;8.636;2024-02-23T00:42:36;98038.91;;;8.93;100.00
59435;BME280;45241;49.768;8.636;2024-02-23T00:45:02;98047.03;;;8.75;100.00
59435;BME280;45241;49.768;8.636;2024-02-23T00:47:28;98044.50;;;8.80;100.00
59435;BME280;45241;49.768;8.636;2024-02-23T00:49:53;98047.50;;;8.60;100.00
59435;BME280;45241;49.768;8.636;2024-02-23T00:52:19;98053.19;;;8.75;100.00
59435;BME280;45241;49.768;8.636;2024-02-23T00:54:44;98060.88;;;8.60;100.00
59435;BME280;45241;49.768;8.636;2024-02-23T00:57:10;98059.25;;;8.59;100.00
59435;BME280;45241;49.768;8.636;2024-02-23T00:59:35;98067.84;;;8.61;100.00
59435;BME280;45241;49.768;8.636;2024-02-23T01:02:00;98065.16;;;8.61;100.00
59435;BME280;45241;49.768;8.636;2024-02-23T01:04:26;98054.13;;;8.46;100.00
59435;BME280;45241;49.768;8.636;2024-02-23T01:06:51;98067.22;;;8.36;100.00
59435;BME280;45241;49.768;8.636;2024-02-23T01:09:16;98081.16;;;8.38;100.00
59435;BME280;45241;49.768;8.636;2024-02-23T01:11:46;98078.69;;;8.25;100.00
59435;BME280;45241;49.768;8.636;2024-02-23T01:14:11;98077.91;;;8.47;100.00
59435;BME280;45241;49.768;8.636;2024-02-23T01:16:36;98081.25;;;8.31;100.00
59435;BME280;45241;49.768;8.636;2024-02-23T01:19:02;98081.06;;;8.44;100.00
59435;BME280;45241;49.768;8.636;2024-02-23T01:21:28;98076.19;;;8.41;100.00
59435;BME280;45241;49.768;8.636;2024-02-23T01:23:53;98083.13;;;8.31;100.00
59435;BME280;45241;49.768;8.636;2024-02-23T01:26:19;98096.97;;;8.39;100.00
59435;BME280;45241;49.768;8.636;2024-02-23T01:28:44;98098.09;;;8.32;100.00
59435;BME280;45241;49.768;8.636;2024-02-23T01:31:10;98102.72;;;8.36;100.00
59435;BME280;45241;49.768;8.636;2024-02-23T01:33:37;98103.50;;;8.25;100.00
59435;BME280;45241;49.768;8.636;2024-02-23T01:36:06;98115.50;;;8.34;100.00
59435;BME280;45241;49.768;8.636;2024-02-23T01:38:32;98125.16;;;8.47;100.00
59435;BME280;45241;49.768;8.636;2024-02-23T01:40:58;98126.75;;;8.36;100.00
59435;BME280;45241;49.768;8.636;2024-02-23T01:43:24;98122.00;;;8.27;100.00
59435;BME280;45241;49.768;8.636;2024-02-23T01:45:49;98143.75;;;8.12;100.00
59435;BME280;45241;49.768;8.636;2024-02-23T01:48:15;98139.13;;;8.19;100.00
59435;BME280;45241;49.768;8.636;2024-02-23T01:50:41;98134.78;;;8.06;100.00
59435;BME280;45241;49.768;8.636;2024-02-23T01:53:07;98139.72;;;7.91;100.00
59435;BME280;45241;49.768;8.636;2024-02-23T01:55:32;98138.72;;;8.04;100.00
59435;BME280;45241;49.768;8.636;2024-02-23T01:57:59;98141.41;;;8.04;100.00
59435;BME280;45241;49.768;8.636;2024-02-23T02:00:25;98135.31;;;8.15;100.00
59435;BME280;45241;49.768;8.636;2024-02-23T02:02:50;98137.47;;;8.06;100.00
59435;BME280;45241;49.768;8.636;2024-02-23T02:05:16;98158.97;;;7.93;100.00
59435;BME280;45241;49.768;8.636;2024-02-23T02:07:41;98169.22;;;7.78;100.00
59435;BME280;45241;49.768;8.636;2024-02-23T02:10:08;98169.53;;;7.88;100.00
59435;BME280;45241;49.768;8.636;2024-02-23T02:12:34;98180.13;;;7.76;100.00
59435;BME280;45241;49.768;8.636;2024-02-23T02:15:01;98180.94;;;7.77;100.00
59435;BME280;45241;49.768;8.636;2024-02-23T02:17:27;98196.88;;;7.65;100.00
59435;BME280;45241;49.768;8.636;2024-02-23T02:19:53;98194.28;;;7.77;100.00
59435;BME280;45241;49.768;8.636;2024-02-23T02:22:18;98208.94;;;7.68;100.00
59435;BME280;45241;49.768;8.636;2024-02-23T02:24:44;98199.22;;;7.37;100.00
59435;BME280;45241;49.768;8.636;2024-02-23T02:27:11;98204.91;;;7.40;100.00
59435;BME280;45241;49.768;8.636;2024-02-23T02:29:36;98201.50;;;7.33;100.00
59435;BME280;45241;49.768;8.636;2024-02-23T02:32:02;98216.16;;;7.24;100.00
59435;BME280;45241;49.768;8.636;2024-02-23T02:34:28;98206.34;;;7.18;100.00
59435;BME280;45241;49.768;8.636;2024-02-23T02:36:54;98217.53;;;7.51;100.00
59435;BME280;45241;49.768;8.636;2024-02-23T02:39:19;98222.94;;;7.20;100.00
59435;BME280;45241;49.768;8.636;2024-02-23T02:41:45;98227.31;;;7.32;100.00
59435;BME280;45241;49.768;8.636;2024-02-23T02:44:10;98235.41;;;7.01;100.00
59435;BME280;45241;49.768;8.636;2024-02-23T02:46:35;98232.03;;;7.37;100.00
59435;BME280;45241;49.768;8.636;2024-02-23T02:49:02;98233.78;;;7.43;100.00
59435;BME280;45241;49.768;8.636;2024-02-23T02:51:27;98238.00;;;7.32;100.00
59435;BME280;45241;49.768;8.636;2024-02-23T02:53:52;98239.69;;;7.02;100.00
59435;BME280;45241;49.768;8.636;2024-02-23T02:56:18;98237.81;;;7.09;100.00
59435;BME280;45241;49.768;8.636;2024-02-23T02:58:43;98234.13;;;7.04;100.00
59435;BME280;45241;49.768;8.636;2024-02-23T03:01:08;98239.25;;;7.05;100.00
59435;BME280;45241;49.768;8.636;2024-02-23T03:03:34;98248.66;;;7.08;100.00
59435;BME280;45241;49.768;8.636;2024-02-23T03:06:00;98235.72;;;7.11;100.00
59435;BME280;45241;49.768;8.636;2024-02-23T03:08:25;98239.28;;;6.98;100.00
59435;BME280;45241;49.768;8.636;2024-02-23T03:10:51;98224.69;;;6.76;100.00
59435;BME280;45241;49.768;8.636;2024-02-23T03:13:16;98240.59;;;6.83;100.00
59435;BME280;45241;49.768;8.636;2024-02-23T03:15:41;98242.66;;;6.81;100.00
59435;BME280;45241;49.768;8.636;2024-02-23T03:18:07;98242.72;;;6.74;100.00
59435;BME280;45241;49.768;8.636;2024-02-23T03:20:34;98239.28;;;6.67;100.00
59435;BME280;45241;49.768;8.636;2024-02-23T03:22:59;98234.63;;;6.62;100.00
59435;BME280;45241;49.768;8.636;2024-02-23T03:25:26;98222.25;;;6.75;100.00
59435;BME280;45241;49.768;8.636;2024-02-23T03:27:51;98241.44;;;6.83;100.00
59435;BME280;45241;49.768;8.636;2024-02-23T03:30:16;98239.78;;;6.82;100.00
59435;BME280;45241;49.768;8.636;2024-02-23T03:32:42;98243.63;;;6.93;100.00
59435;BME280;45241;49.768;8.636;2024-02-23T03:35:08;98238.06;;;6.94;100.00
59435;BME280;45241;49.768;8.636;2024-02-23T03:37:33;98244.44;;;6.93;100.00
59435;BME280;45241;49.768;8.636;2024-02-23T03:39:59;98251.91;;;6.78;100.00
59435;BME280;45241;49.768;8.636;2024-02-23T03:42:27;98233.41;;;6.90;100.00
59435;BME280;45241;49.768;8.636;2024-02-23T03:44:52;98230.16;;;6.81;100.00
59435;BME280;45241;49.768;8.636;2024-02-23T03:47:18;98216.19;;;6.61;100.00
59435;BME280;45241;49.768;8.636;2024-02-23T03:49:43;98223.09;;;6.68;100.00
59435;BME280;45241;49.768;8.636;2024-02-23T03:52:09;98234.56;;;6.69;100.00
59435;BME280;45241;49.768;8.636;2024-02-23T03:54:34;98254.72;;;6.58;100.00
59435;BME280;45241;49.768;8.636;2024-02-23T03:56:59;98240.50;;;6.71;100.00
59435;BME280;45241;49.768;8.636;2024-02-23T03:59:24;98239.22;;;7.12;100.00
59435;BME280;45241;49.768;8.636;2024-02-23T04:01:50;98234.06;;;6.85;100.00
59435;BME280;45241;49.768;8.636;2024-02-23T04:04:15;98236.22;;;7.01;100.00
59435;BME280;45241;49.768;8.636;2024-02-23T04:06:41;98244.19;;;7.01;100.00
59435;BME280;45241;49.768;8.636;2024-02-23T04:09:06;98243.53;;;7.06;100.00
59435;BME280;45241;49.768;8.636;2024-02-23T04:11:33;98254.84;;;6.95;100.00
59435;BME280;45241;49.768;8.636;2024-02-23T04:13:59;98253.22;;;7.00;100.00
59435;BME280;45241;49.768;8.636;2024-02-23T04:16:25;98258.97;;;6.97;100.00
59435;BME280;45241;49.768;8.636;2024-02-23T04:18:51;98260.19;;;7.01;100.00
59435;BME280;45241;49.768;8.636;2024-02-23T04:21:16;98252.66;;;7.23;100.00
59435;BME280;45241;49.768;8.636;2024-02-23T04:23:43;98251.59;;;6.93;100.00
59435;BME280;45241;49.768;8.636;2024-02-23T04:26:08;98249.75;;;7.25;100.00
59435;BME280;45241;49.768;8.636;2024-02-23T04:28:34;98249.97;;;7.23;100.00
59435;BME280;45241;49.768;8.636;2024-02-23T04:30:59;98260.09;;;7.15;100.00
59435;BME280;45241;49.768;8.636;2024-02-23T04:33:26;98264.13;;;7.24;100.00
59435;BME280;45241;49.768;8.636;2024-02-23T04:35:51;98266.00;;;7.42;100.00
59435;BME280;45241;49.768;8.636;2024-02-23T04:38:16;98267.63;;;7.18;100.00
59435;BME280;45241;49.768;8.636;2024-02-23T04:40:41;98262.31;;;7.18;100.00
59435;BME280;45241;49.768;8.636;2024-02-23T04:43:07;98269.16;;;7.07;100.00
59435;BME280;45241;49.768;8.636;2024-02-23T04:45:32;98262.22;;;6.99;100.00
59435;BME280;45241;49.768;8.636;2024-02-23T04:47:57;98273.25;;;7.10;100.00
59435;BME280;45241;49.768;8.636;2024-02-23T04:50:23;98262.19;;;7.06;100.00
59435;BME280;45241;49.768;8.636;2024-02-23T04:52:48;98267.03;;;7.16;100.00
59435;BME280;45241;49.768;8.636;2024-02-23T04:55:15;98270.84;;;7.01;100.00
59435;BME280;45241;49.768;8.636;2024-02-23T04:57:40;98269.72;;;7.16;100.00
59435;BME280;45241;49.768;8.636;2024-02-23T05:00:06;98267.78;;;6.98;100.00
59435;BME280;45241;49.768;8.636;2024-02-23T05:02:33;98269.34;;;7.37;100.00
59435;BME280;45241;49.768;8.636;2024-02-23T05:05:01;98274.81;;;7.17;100.00
59435;BME280;45241;49.768;8.636;2024-02-23T05:07:29;98275.00;;;7.22;100.00
59435;BME280;45241;49.768;8.636;2024-02-23T05:09:55;98269.22;;;7.25;100.00
59435;BME280;45241;49.768;8.636;2024-02-23T05:12:20;98270.59;;;7.10;100.00
59435;BME280;45241;49.768;8.636;2024-02-23T05:14:45;98264.81;;;7.13;100.00
59435;BME280;45241;49.768;8.636;2024-02-23T05:17:11;98258.22;;;7.40;100.00
59435;BME280;45241;49.768;8.636;2024-02-23T05:19:36;98259.19;;;7.21;100.00
59435;BME280;45241;49.768;8.636;2024-02-23T05:22:01;98245.84;;;7.27;100.00
59435;BME280;45241;49.768;8.636;2024-02-23T05:24:26;98250.50;;;7.32;100.00
59435;BME280;45241;49.768;8.636;2024-02-23T05:26:52;98242.41;;;7.20;100.00
59435;BME280;45241;49.768;8.636;2024-02-23T05:29:17;98245.47;;;7.24;100.00
59435;BME280;45241;49.768;8.636;2024-02-23T05:31:49;98237.63;;;7.29;100.00
59435;BME280;45241;49.768;8.636;2024-02-23T05:34:15;98247.69;;;7.27;100.00
59435;BME280;45241;49.768;8.636;2024-02-23T05:36:40;98249.75;;;7.25;100.00
59435;BME280;45241;49.768;8.636;2024-02-23T05:39:06;98237.88;;;7.21;100.00
59435;BME280;45241;49.768;8.636;2024-02-23T05:41:33;98255.22;;;7.30;100.00
59435;BME280;45241;49.768;8.636;2024-02-23T05:43:58;98254.41;;;7.05;100.00
59435;BME280;45241;49.768;8.636;2024-02-23T05:46:24;98252.03;;;7.21;100.00
59435;BME280;45241;49.768;8.636;2024-02-23T05:48:49;98251.59;;;7.24;100.00
59435;BME280;45241;49.768;8.636;2024-02-23T05:51:14;98245.50;;;7.17;100.00
59435;BME280;45241;49.768;8.636;2024-02-23T05:53:40;98250.34;;;7.27;100.00
59435;BME280;45241;49.768;8.636;2024-02-23T05:56:06;98252.09;;;7.15;100.00
59435;BME280;45241;49.768;8.636;2024-02-23T05:58:31;98256.84;;;7.06;100.00
59435;BME280;45241;49.768;8.636;2024-02-23T06:00:56;98253.13;;;7.14;100.00
59435;BME280;45241;49.768;8.636;2024-02-23T06:03:22;98253.81;;;7.03;100.00
59435;BME280;45241;49.768;8.636;2024-02-23T06:05:47;98258.47;;;7.14;100.00
59435;BME280;45241;49.768;8.636;2024-02-23T06:08:12;98251.13;;;7.09;100.00
59435;BME280;45241;49.768;8.636;2024-02-23T06:10:38;98272.47;;;7.03;100.00
59435;BME280;45241;49.768;8.636;2024-02-23T06:13:03;98279.41;;;7.10;100.00
59435;BME280;45241;49.768;8.636;2024-02-23T06:15:29;98276.91;;;7.09;100.00
59435;BME280;45241;49.768;8.636;2024-02-23T06:17:54;98277.66;;;7.22;100.00
59435;BME280;45241;49.768;8.636;2024-02-23T06:20:19;98279.59;;;7.09;100.00
59435;BME280;45241;49.768;8.636;2024-02-23T06:22:45;98279.94;;;7.19;100.00
59435;BME280;45241;49.768;8.636;2024-02-23T06:25:10;98275.50;;;7.06;100.00
59435;BME280;45241;49.768;8.636;2024-02-23T06:27:37;98293.94;;;7.08;100.00
59435;BME280;45241;49.768;8.636;2024-02-23T06:30:02;98287.91;;;7.19;100.00
59435;BME280;45241;49.768;8.636;2024-02-23T06:32:28;98296.78;;;7.13;100.00
59435;BME280;45241;49.768;8.636;2024-02-23T06:34:54;98283.69;;;7.11;100.00
59435;BME280;45241;49.768;8.636;2024-02-23T06:37:19;98287.31;;;7.17;100.00
59435;BME280;45241;49.768;8.636;2024-02-23T06:39:44;98300.22;;;7.20;100.00
59435;BME280;45241;49.768;8.636;2024-02-23T06:42:14;98307.78;;;7.23;100.00
59435;BME280;45241;49.768;8.636;2024-02-23T06:44:40;98304.50;;;7.21;100.00
59435;BME280;45241;49.768;8.636;2024-02-23T06:47:05;98300.06;;;7.15;100.00
59435;BME280;45241;49.768;8.636;2024-02-23T06:49:31;98302.28;;;7.18;100.00
59435;BME280;45241;49.768;8.636;2024-02-23T06:51:56;98307.06;;;7.09;100.00
59435;BME280;45241;49.768;8.636;2024-02-23T06:54:22;98306.78;;;7.17;100.00
59435;BME280;45241;49.768;8.636;2024-02-23T06:56:47;98304.34;;;7.16;100.00
59435;BME280;45241;49.768;8.636;2024-02-23T06:59:12;98299.41;;;7.19;100.00
59435;BME280;45241;49.768;8.636;2024-02-23T07:01:48;98290.00;;;7.17;100.00
59435;BME280;45241;49.768;8.636;2024-02-23T07:04:13;98293.19;;;7.00;100.00
59435;BME280;45241;49.768;8.636;2024-02-23T07:06:39;98302.69;;;6.83;100.00
59435;BME280;45241;49.768;8.636;2024-02-23T07:09:04;98301.84;;;6.89;100.00
59435;BME280;45241;49.768;8.636;2024-02-23T07:11:30;98305.25;;;7.03;100.00
59435;BME280;45241;49.768;8.636;2024-02-23T07:13:55;98306.81;;;6.79;100.00
59435;BME280;45241;49.768;8.636;2024-02-23T07:16:21;98308.63;;;6.85;100.00
59435;BME280;45241;49.768;8.636;2024-02-23T07:18:46;98300.41;;;6.87;100.00
59435;BME280;45241;49.768;8.636;2024-02-23T07:21:11;98300.16;;;7.01;100.00
59435;BME280;45241;49.768;8.636;2024-02-23T07:23:37;98308.50;;;6.67;100.00
59435;BME280;45241;49.768;8.636;2024-02-23T07:26:02;98311.53;;;6.77;100.00
59435;BME280;45241;49.768;8.636;2024-02-23T07:28:27;98310.72;;;6.77;100.00
59435;BME280;45241;49.768;8.636;2024-02-23T07:30:53;98318.56;;;6.65;100.00
59435;BME280;45241;49.768;8.636;2024-02-23T07:33:18;98308.34;;;7.00;100.00
59435;BME280;45241;49.768;8.636;2024-02-23T07:35:44;98313.22;;;6.65;100.00
59435;BME280;45241;49.768;8.636;2024-02-23T07:38:09;98310.63;;;6.90;100.00
59435;BME280;45241;49.768;8.636;2024-02-23T07:40:34;98311.19;;;6.67;100.00
59435;BME280;45241;49.768;8.636;2024-02-23T07:42:59;98306.91;;;6.97;100.00
59435;BME280;45241;49.768;8.636;2024-02-23T07:45:25;98303.31;;;6.85;100.00
59435;BME280;45241;49.768;8.636;2024-02-23T07:47:51;98303.38;;;6.72;100.00
59435;BME280;45241;49.768;8.636;2024-02-23T07:50:16;98305.75;;;6.87;100.00
59435;BME280;45241;49.768;8.636;2024-02-23T07:52:44;98305.47;;;6.95;100.00
59435;BME280;45241;49.768;8.636;2024-02-23T07:55:09;98311.03;;;7.00;100.00
59435;BME280;45241;49.768;8.636;2024-02-23T07:57:34;98309.53;;;7.11;100.00
59435;BME280;45241;49.768;8.636;2024-02-23T08:00:00;98306.56;;;7.19;100.00
59435;BME280;45241;49.768;8.636;2024-02-23T08:02:25;98311.81;;;7.32;100.00
59435;BME280;45241;49.768;8.636;2024-02-23T08:04:50;98307.47;;;7.38;100.00
59435;BME280;45241;49.768;8.636;2024-02-23T08:07:17;98312.59;;;7.39;100.00
59435;BME280;45241;49.768;8.636;2024-02-23T08:09:42;98327.00;;;7.56;100.00
59435;BME280;45241;49.768;8.636;2024-02-23T08:12:08;98331.16;;;7.71;100.00
59435;BME280;45241;49.768;8.636;2024-02-23T08:14:33;98331.06;;;7.34;100.00
59435;BME280;45241;49.768;8.636;2024-02-23T08:16:59;98337.31;;;7.46;100.00
59435;BME280;45241;49.768;8.636;2024-02-23T08:19:24;98344.72;;;7.44;100.00
59435;BME280;45241;49.768;8.636;2024-02-23T08:21:50;98350.44;;;7.48;100.00
59435;BME280;45241;49.768;8.636;2024-02-23T08:24:15;98347.56;;;7.49;100.00
59435;BME280;45241;49.768;8.636;2024-02-23T08:26:40;98342.38;;;7.54;100.00
59435;BME280;45241;49.768;8.636;2024-02-23T08:29:07;98345.06;;;7.54;100.00
59435;BME280;45241;49.768;8.636;2024-02-23T08:31:34;98340.38;;;7.75;100.00
59435;BME280;45241;49.768;8.636;2024-02-23T08:33:59;98347.38;;;7.69;100.00
59435;BME280;45241;49.768;8.636;2024-02-23T08:36:24;98341.47;;;7.67;100.00
59435;BME280;45241;49.768;8.636;2024-02-23T08:38:49;98354.00;;;7.85;100.00
59435;BME280;45241;49.768;8.636;2024-02-23T08:41:15;98348.38;;;7.75;100.00
59435;BME280;45241;49.768;8.636;2024-02-23T08:43:40;98352.91;;;7.74;100.00
59435;BME280;45241;49.768;8.636;2024-02-23T08:46:06;98353.28;;;7.96;100.00
59435;BME280;45241;49.768;8.636;2024-02-23T08:48:31;98345.88;;;7.98;100.00
59435;BME280;45241;49.768;8.636;2024-02-23T08:50:56;98332.44;;;7.86;100.00
59435;BME280;45241;49.768;8.636;2024-02-23T08:53:22;98339.63;;;7.86;100.00
59435;BME280;45241;49.768;8.636;2024-02-23T08:55:47;98336.34;;;8.09;100.00
59435;BME280;45241;49.768;8.636;2024-02-23T08:58:13;98336.84;;;7.99;100.00
59435;BME280;45241;49.768;8.636;2024-02-23T09:00:38;98347.09;;;8.20;100.00
59435;BME280;45241;49.768;8.636;2024-02-23T09:03:03;98343.56;;;8.27;100.00
59435;BME280;45241;49.768;8.636;2024-02-23T09:05:29;98345.03;;;8.41;100.00
59435;BME280;45241;49.768;8.636;2024-02-23T09:07:54;98339.41;;;8.31;100.00
59435;BME280;45241;49.768;8.636;2024-02-23T09:10:20;98346.50;;;8.18;100.00
59435;BME280;45241;49.768;8.636;2024-02-23T09:12:45;98340.72;;;8.22;100.00
59435;BME280;45241;49.768;8.636;2024-02-23T09:15:11;98345.03;;;8.41;100.00
59435;BME280;45241;49.768;8.636;2024-02-23T09:17:36;98342.03;;;8.49;100.00
59435;BME280;45241;49.768;8.636;2024-02-23T09:20:02;98338.50;;;8.37;100.00
59435;BME280;45241;49.768;8.636;2024-02-23T09:22:27;98338.56;;;8.48;100.00
59435;BME280;45241;49.768;8.636;2024-02-23T09:24:53;98345.47;;;8.56;100.00
59435;BME280;45241;49.768;8.636;2024-02-23T09:27:20;98345.44;;;8.74;100.00
59435;BME280;45241;49.768;8.636;2024-02-23T09:29:46;98324.25;;;8.91;100.00
59435;BME280;45241;49.768;8.636;2024-02-23T09:32:11;98341.81;;;8.69;100.00
59435;BME280;45241;49.768;8.636;2024-02-23T09:34:36;98336.94;;;8.66;100.00
59435;BME280;45241;49.768;8.636;2024-02-23T09:37:02;98325.69;;;8.75;100.00
59435;BME280;45241;49.768;8.636;2024-02-23T09:39:27;98327.78;;;8.73;100.00
59435;BME280;45241;49.768;8.636;2024-02-23T09:41:55;98333.13;;;8.73;100.00
59435;BME280;45241;49.768;8.636;2024-02-23T09:44:22;98312.47;;;8.81;100.00
59435;BME280;45241;49.768;8.636;2024-02-23T09:46:48;98318.25;;;9.07;100.00
59435;BME280;45241;49.768;8.636;2024-02-23T09:49:14;98323.66;;;8.89;100.00
59435;BME280;45241;49.768;8.636;2024-02-23T09:51:40;98327.94;;;8.90;100.00
59435;BME280;45241;49.768;8.636;2024-02-23T09:54:06;98326.25;;;8.96;100.00
59435;BME280;45241;49.768;8.636;2024-02-23T09:56:32;98322.84;;;8.89;100.00
59435;BME280;45241;49.768;8.636;2024-02-23T09:59:01;98318.53;;;8.88;100.00
59435;BME280;45241;49.768;8.636;2024-02-23T10:01:28;98307.91;;;8.69;100.00
59435;BME280;45241;49.768;8.636;2024-02-23T10:03:57;98318.81;;;8.98;100.00
59435;BME280;45241;49.768;8.636;2024-02-23T10:06:26;98319.56;;;9.28;100.00
59435;BME280;45241;49.768;8.636;2024-02-23T10:08:51;98322.66;;;9.02;99.73
59435;BME280;45241;49.768;8.636;2024-02-23T10:11:20;98321.41;;;9.16;100.00
59435;BME280;45241;49.768;8.636;2024-02-23T10:13:47;98321.31;;;9.23;99.72
59435;BME280;45241;49.768;8.636;2024-02-23T10:16:15;98329.03;;;9.01;99.31
59435;BME280;45241;49.768;8.636;2024-02-23T10:18:40;98327.56;;;9.17;98.95
59435;BME280;45241;49.768;8.636;2024-02-23T10:21:05;98329.66;;;9.45;100.00
59435;BME280;45241;49.768;8.636;2024-02-23T10:23:31;98325.75;;;9.29;100.00
59435;BME280;45241;49.768;8.636;2024-02-23T10:25:57;98322.38;;;9.22;98.65
59435;BME280;45241;49.768;8.636;2024-02-23T10:28:22;98325.88;;;9.34;100.00
59435;BME280;45241;49.768;8.636;2024-02-23T10:30:48;98313.59;;;9.45;99.30
59435;BME280;45241;49.768;8.636;2024-02-23T10:33:14;98326.16;;;9.56;99.02
59435;BME280;45241;49.768;8.636;2024-02-23T10:35:40;98330.25;;;9.58;97.89
59435;BME280;45241;49.768;8.636;2024-02-23T10:38:08;98327.13;;;9.73;98.13
59435;BME280;45241;49.768;8.636;2024-02-23T10:40:38;98322.59;;;9.97;95.75
59435;BME280;45241;49.768;8.636;2024-02-23T10:43:12;98322.13;;;10.00;96.42
59435;BME280;45241;49.768;8.636;2024-02-23T10:45:38;98326.28;;;10.08;94.69
59435;BME280;45241;49.768;8.636;2024-02-23T10:48:07;98310.59;;;9.76;94.02
59435;BME280;45241;49.768;8.636;2024-02-23T10:50:34;98318.28;;;9.84;96.39
59435;BME280;45241;49.768;8.636;2024-02-23T10:53:00;98313.16;;;9.71;96.68
59435;BME280;45241;49.768;8.636;2024-02-23T10:55:26;98324.31;;;9.68;96.13
59435;BME280;45241;49.768;8.636;2024-02-23T10:57:52;98315.59;;;9.61;94.90
59435;BME280;45241;49.768;8.636;2024-02-23T11:00:21;98321.88;;;9.78;97.26
59435;BME280;45241;49.768;8.636;2024-02-23T11:02:50;98321.06;;;9.66;97.13
59435;BME280;45241;49.768;8.636;2024-02-23T11:05:16;98314.00;;;9.42;97.37
59435;BME280;45241;49.768;8.636;2024-02-23T11:07:46;98312.09;;;9.60;99.28
59435;BME280;45241;49.768;8.636;2024-02-23T11:10:14;98324.06;;;9.81;98.71
59435;BME280;45241;49.768;8.636;2024-02-23T11:12:40;98315.94;;;9.76;100.00
59435;BME280;45241;49.768;8.636;2024-02-23T11:15:06;98315.13;;;9.76;97.37
59435;BME280;45241;49.768;8.636;2024-02-23T11:17:32;98326.75;;;9.81;98.38
59435;BME280;45241;49.768;8.636;2024-02-23T11:19:58;98315.47;;;9.67;96.41
59435;BME280;45241;49.768;8.636;2024-02-23T11:22:29;98309.69;;;9.71;96.70
59435;BME280;45241;49.768;8.636;2024-02-23T11:25:03;98308.03;;;9.81;98.49
59435;BME280;45241;49.768;8.636;2024-02-23T11:27:33;98304.91;;;9.96;97.72
59435;BME280;45241;49.768;8.636;2024-02-23T11:30:08;98302.66;;;10.05;98.16
59435;BME280;45241;49.768;8.636;2024-02-23T11:32:45;98301.41;;;9.95;97.87
59435;BME280;45241;49.768;8.636;2024-02-23T11:35:13;98311.41;;;9.88;95.25
59435;BME280;45241;49.768;8.636;2024-02-23T11:37:52;98306.16;;;10.05;97.25
59435;BME280;45241;49.768;8.636;2024-02-23T11:40:30;98299.31;;;9.98;94.17
59435;BME280;45241;49.768;8.636;2024-02-23T11:42:56;98301.16;;;10.09;97.98
59435;BME280;45241;49.768;8.636;2024-02-23T11:45:21;98302.88;;;10.15;94.27
59435;BME280;45241;49.768;8.636;2024-02-23T11:47:47;98306.56;;;10.37;93.41
59435;BME280;45241;49.768;8.636;2024-02-23T11:50:13;98301.56;;;10.41;91.25
59435;BME280;45241;49.768;8.636;2024-02-23T11:52:39;98298.50;;;10.49;89.57
59435;BME280;45241;49.768;8.636;2024-02-23T11:55:05;98301.88;;;10.44;90.53
59435;BME280;45241;49.768;8.636;2024-02-23T11:57:35;98292.91;;;10.50;90.31
59435;BME280;45241;49.768;8.636;2024-02-23T12:00:04;98287.84;;;10.94;90.73
59435;BME280;45241;49.768;8.636;2024-02-23T12:02:32;98289.47;;;10.67;88.51
59435;BME280;45241;49.768;8.636;2024-02-23T12:04:57;98284.47;;;11.15;87.29
59435;BME280;45241;49.768;8.636;2024-02-23T12:07:23;98293.75;;;11.58;87.03
59435;BME280;45241;49.768;8.636;2024-02-23T12:09:49;98288.06;;;10.93;88.99
59435;BME280;45241;49.768;8.636;2024-02-23T12:12:16;98293.56;;;10.58;86.61
59435;BME280;45241;49.768;8.636;2024-02-23T12:14:42;98306.13;;;10.69;88.42
59435;BME280;45241;49.768;8.636;2024-02-23T12:17:08;98297.31;;;10.85;91.04
59435;BME280;45241;49.768;8.636;2024-02-23T12:19:40;98290.03;;;10.69;90.64
59435;BME280;45241;49.768;8.636;2024-02-23T12:22:05;98292.72;;;10.69;88.93
59435;BME280;45241;49.768;8.636;2024-02-23T12:24:31;98295.44;;;10.85;91.67
59435;BME280;45241;49.768;8.636;2024-02-23T12:26:56;98295.50;;;11.02;93.17
59435;BME280;45241;49.768;8.636;2024-02-23T12:29:22;98291.66;;;10.98;91.68
59435;BME280;45241;49.768;8.636;2024-02-23T12:31:48;98294.25;;;10.65;90.30
59435;BME280;45241;49.768;8.636;2024-02-23T12:34:13;98289.31;;;10.45;89.34
59435;BME280;45241;49.768;8.636;2024-02-23T12:36:39;98288.97;;;10.41;91.25
59435;BME280;45241;49.768;8.636;2024-02-23T12:39:05;98285.38;;;10.76;91.70
59435;BME280;45241;49.768;8.636;2024-02-23T12:41:31;98281.22;;;11.30;89.90
59435;BME280;45241;49.768;8.636;2024-02-23T12:43:56;98278.19;;;11.10;89.18
59435;BME280;45241;49.768;8.636;2024-02-23T12:46:22;98279.75;;;11.73;85.34
59435;BME280;45241;49.768;8.636;2024-02-23T12:48:48;98279.25;;;11.93;85.37
59435;BME280;45241;49.768;8.636;2024-02-23T12:51:14;98277.59;;;11.53;85.10
59435;BME280;45241;49.768;8.636;2024-02-23T12:53:40;98279.94;;;11.66;82.49